createdAt,value
2022-12-12T00:01:50.006Z,15.25
2022-12-12T00:04:21.696Z,19.75
2022-12-12T00:06:50.358Z,17.15
2022-12-12T00:09:19.157Z,16.75
2022-12-12T00:11:56.119Z,14.95
2022-12-12T00:14:25.057Z,15.27
2022-12-12T00:16:53.635Z,16.65
2022-12-12T00:19:22.234Z,13.68
2022-12-12T00:21:50.772Z,13.93
2022-12-12T00:24:19.510Z,17.33
2022-12-12T00:26:48.136Z,15.85
2022-12-12T00:29:17.247Z,16.13
2022-12-12T00:31:45.666Z,14.50
2022-12-12T00:34:14.417Z,15.50
2022-12-12T00:36:42.887Z,16.02
2022-12-12T00:39:18.208Z,14.00
2022-12-12T00:42:02.111Z,12.52
2022-12-12T00:44:31.490Z,16.80
2022-12-12T00:47:00.032Z,13.70
2022-12-12T00:49:35.116Z,14.65
2022-12-12T00:52:03.410Z,16.20
2022-12-12T00:54:32.081Z,14.93
2022-12-12T00:57:00.862Z,15.40
2022-12-12T00:59:29.737Z,14.23
2022-12-12T01:01:58.356Z,14.82
2022-12-12T01:04:27.368Z,12.20
2022-12-12T01:07:14.366Z,14.27
2022-12-12T01:09:43.200Z,13.20
2022-12-12T01:12:11.741Z,15.00
2022-12-12T01:14:40.943Z,13.07
2022-12-12T01:17:11.111Z,13.07
2022-12-12T01:19:40.094Z,12.90
2022-12-12T01:22:08.779Z,12.73
2022-12-12T01:24:39.823Z,11.07
2022-12-12T01:27:08.327Z,13.43
2022-12-12T01:29:37.349Z,13.05
2022-12-12T01:32:05.787Z,10.70
2022-12-12T01:34:35.607Z,10.20
2022-12-12T01:37:04.351Z,11.35
2022-12-12T01:39:32.873Z,11.82
2022-12-12T01:42:01.544Z,11.15
2022-12-12T01:44:46.451Z,11.75
2022-12-12T01:47:18.669Z,8.55
2022-12-12T01:50:01.650Z,12.38
2022-12-12T01:52:35.344Z,12.57
2022-12-12T01:55:06.571Z,12.15
2022-12-12T01:57:44.131Z,14.10
2022-12-12T02:00:14.288Z,9.75
2022-12-12T02:02:47.448Z,11.90
2022-12-12T02:05:52.180Z,10.57
2022-12-12T02:08:22.320Z,10.55
2022-12-12T02:10:51.950Z,10.85
2022-12-12T02:13:24.940Z,11.75
2022-12-12T02:16:15.481Z,10.90
2022-12-12T02:19:01.088Z,9.82
2022-12-12T02:21:49.946Z,12.65
2022-12-12T02:24:38.741Z,11.82
2022-12-12T02:27:41.466Z,9.00
2022-12-12T02:30:17.022Z,9.13
2022-12-12T02:33:21.648Z,7.18
2022-12-12T02:36:01.511Z,9.10
2022-12-12T02:38:55.393Z,8.68
2022-12-12T02:41:36.567Z,12.43
2022-12-12T02:44:40.046Z,9.18
2022-12-12T02:47:18.645Z,9.52
2022-12-12T02:49:57.327Z,11.32
2022-12-12T02:52:27.643Z,11.15
2022-12-12T02:54:56.683Z,8.55
2022-12-12T02:57:27.091Z,10.27
2022-12-12T03:00:06.091Z,10.68
2022-12-12T03:02:37.667Z,9.65
2022-12-12T03:05:31.967Z,6.45
2022-12-12T03:08:18.935Z,7.53
2022-12-12T03:10:56.767Z,10.75
2022-12-12T03:13:47.403Z,7.63
2022-12-12T03:16:45.973Z,7.97
2022-12-12T03:19:29.411Z,6.32
2022-12-12T03:22:07.702Z,7.47
2022-12-12T03:24:47.711Z,6.45
2022-12-12T03:27:57.921Z,8.95
2022-12-12T03:30:28.588Z,7.72
2022-12-12T03:33:06.974Z,6.75
2022-12-12T03:35:46.650Z,6.82
2022-12-12T03:38:24.420Z,8.18
2022-12-12T03:40:58.448Z,8.50
2022-12-12T03:43:31.364Z,7.72
2022-12-12T03:46:18.311Z,6.78
2022-12-12T03:49:09.541Z,8.30
2022-12-12T03:51:43.779Z,4.95
2022-12-12T03:54:21.166Z,7.85
2022-12-12T03:57:07.830Z,6.80
2022-12-12T03:59:42.707Z,6.35
2022-12-12T04:02:22.747Z,6.10
2022-12-12T04:05:03.717Z,5.53
2022-12-12T04:07:41.307Z,7.45
2022-12-12T04:10:30.896Z,6.32
2022-12-12T04:13:14.686Z,4.82
2022-12-12T04:16:20.791Z,6.30
2022-12-12T04:19:09.409Z,7.28
2022-12-12T04:22:18.084Z,9.50
2022-12-12T04:25:02.869Z,7.15
2022-12-12T04:27:39.953Z,6.20
2022-12-12T04:30:18.616Z,4.40
2022-12-12T04:33:06.804Z,7.60
2022-12-12T04:35:41.532Z,7.93
2022-12-12T04:38:23.544Z,7.07
2022-12-12T04:40:59.077Z,11.45
2022-12-12T04:43:37.961Z,33.00
2022-12-12T04:46:10.744Z,33.58
2022-12-12T04:48:47.448Z,21.75
2022-12-12T04:51:25.788Z,16.92
2022-12-12T04:54:20.690Z,9.93
2022-12-12T04:56:56.863Z,12.95
2022-12-12T04:59:26.161Z,8.43
2022-12-12T05:02:04.490Z,9.52
2022-12-12T05:04:58.506Z,8.85
2022-12-12T05:07:40.598Z,9.00
2022-12-12T05:10:16.454Z,9.32
2022-12-12T05:12:50.479Z,11.43
2022-12-12T05:15:20.825Z,9.20
2022-12-12T05:17:56.913Z,9.02
2022-12-12T05:20:27.589Z,6.47
2022-12-12T05:22:56.575Z,7.60
2022-12-12T05:25:25.436Z,9.57
2022-12-12T05:27:54.126Z,9.80
2022-12-12T05:30:24.793Z,7.65
2022-12-12T05:32:54.715Z,7.47
2022-12-12T05:35:23.793Z,10.27
2022-12-12T05:37:52.969Z,19.58
2022-12-12T05:40:27.741Z,12.40
2022-12-12T05:42:57.247Z,11.60
2022-12-12T05:45:25.895Z,11.07
2022-12-12T05:47:54.293Z,10.63
2022-12-12T05:50:23.549Z,8.32
2022-12-12T05:52:52.172Z,12.90
2022-12-12T05:55:23.515Z,13.00
2022-12-12T05:57:52.221Z,5.63
2022-12-12T06:03:03.610Z,9.15
2022-12-12T06:05:32.182Z,9.00
2022-12-12T06:08:00.739Z,12.05
2022-12-12T06:10:29.712Z,20.67
2022-12-12T06:12:58.090Z,10.75
2022-12-12T06:15:26.772Z,8.95
2022-12-12T06:17:55.345Z,8.38
2022-12-12T06:20:25.125Z,8.50
2022-12-12T06:22:54.210Z,7.60
2022-12-12T06:25:23.461Z,11.38
2022-12-12T06:27:52.205Z,19.83
2022-12-12T06:30:22.440Z,11.00
2022-12-12T06:33:16.105Z,11.45
2022-12-12T06:36:12.411Z,11.35
2022-12-12T06:38:41.614Z,10.05
2022-12-12T06:41:12.914Z,13.05
2022-12-12T06:43:42.588Z,10.10
2022-12-12T06:46:16.904Z,13.20
2022-12-12T06:48:46.005Z,10.45
2022-12-12T06:51:17.022Z,10.02
2022-12-12T06:53:45.869Z,11.45
2022-12-12T06:56:22.336Z,12.45
2022-12-12T06:58:52.295Z,12.63
2022-12-12T07:01:23.587Z,10.60
2022-12-12T07:03:53.927Z,16.15
2022-12-12T07:06:23.688Z,10.27
2022-12-12T07:08:53.439Z,10.80
2022-12-12T07:11:24.692Z,11.25
2022-12-12T07:13:56.928Z,10.75
2022-12-12T07:16:25.412Z,9.45
2022-12-12T07:18:54.250Z,12.18
2022-12-12T07:21:22.877Z,10.02
2022-12-12T07:23:51.664Z,12.07
2022-12-12T07:26:22.588Z,8.80
2022-12-12T07:28:52.182Z,8.00
2022-12-12T07:31:23.137Z,10.23
2022-12-12T07:33:54.357Z,12.55
2022-12-12T07:36:23.786Z,8.80
2022-12-12T07:38:52.686Z,9.48
2022-12-12T07:41:23.500Z,8.25
2022-12-12T07:43:52.678Z,8.52
2022-12-12T07:46:23.796Z,7.40
2022-12-12T07:48:54.073Z,8.10
2022-12-12T07:51:22.961Z,3.45
2022-12-12T07:53:51.761Z,4.32
2022-12-12T07:56:20.554Z,6.30
2022-12-12T07:58:49.871Z,8.77
2022-12-12T08:01:21.813Z,7.47
2022-12-12T08:03:51.460Z,8.13
2022-12-12T08:06:22.045Z,11.02
2022-12-12T08:08:52.685Z,7.88
2022-12-12T08:11:23.227Z,7.63
2022-12-12T08:13:53.241Z,10.50
2022-12-12T08:16:24.785Z,8.88
2022-12-12T08:18:55.815Z,7.75
2022-12-12T08:21:26.437Z,5.65
2022-12-12T08:23:57.753Z,6.13
2022-12-12T08:26:26.432Z,8.45
2022-12-12T08:28:56.687Z,7.32
2022-12-12T08:31:25.603Z,9.20
2022-12-12T08:33:54.841Z,6.20
2022-12-12T08:36:26.078Z,5.80
2022-12-12T08:38:54.792Z,4.50
2022-12-12T08:41:25.265Z,6.70
2022-12-12T08:43:54.220Z,6.90
2022-12-12T08:46:23.567Z,3.17
2022-12-12T08:48:52.476Z,5.55
2022-12-12T08:51:30.940Z,2.83
2022-12-12T08:53:59.534Z,2.90
2022-12-12T08:56:29.092Z,3.78
2022-12-12T08:58:57.767Z,7.88
2022-12-12T09:01:27.799Z,7.40
2022-12-12T09:03:57.746Z,9.95
2022-12-12T09:06:27.021Z,6.78
2022-12-12T09:08:57.730Z,6.20
2022-12-12T09:11:26.570Z,3.65
2022-12-12T09:13:55.668Z,7.13
2022-12-12T09:16:26.840Z,4.30
2022-12-12T09:18:56.487Z,3.70
2022-12-12T09:21:25.186Z,4.40
2022-12-12T09:23:53.957Z,4.90
2022-12-12T09:26:22.216Z,3.15
2022-12-12T09:28:51.122Z,4.20
2022-12-12T09:31:20.282Z,4.82
2022-12-12T09:33:51.625Z,4.88
2022-12-12T09:36:21.203Z,4.55
2022-12-12T09:38:50.441Z,9.45
2022-12-12T09:41:30.842Z,6.70
2022-12-12T09:44:08.773Z,4.50
2022-12-12T09:46:41.892Z,4.97
2022-12-12T09:49:31.317Z,6.03
2022-12-12T09:52:02.725Z,6.75
2022-12-12T09:54:31.885Z,7.00
2022-12-12T09:57:33.702Z,3.72
2022-12-12T10:00:09.830Z,4.40
2022-12-12T10:03:22.603Z,3.35
2022-12-12T10:06:35.833Z,8.05
2022-12-12T10:08:59.676Z,6.15
2022-12-12T10:11:51.233Z,5.30
2022-12-12T10:14:41.329Z,6.72
2022-12-12T10:17:21.708Z,6.05
2022-12-12T10:19:53.684Z,7.35
2022-12-12T10:22:40.708Z,5.68
2022-12-12T10:25:19.920Z,8.63
2022-12-12T10:27:54.595Z,5.72
2022-12-12T10:30:23.142Z,2.92
2022-12-12T10:33:11.953Z,5.47
2022-12-12T10:35:53.070Z,6.60
2022-12-12T10:38:40.372Z,5.32
2022-12-12T10:41:23.732Z,4.82
2022-12-12T10:44:04.620Z,5.40
2022-12-12T10:46:58.329Z,4.00
2022-12-12T10:49:27.390Z,6.53
2022-12-12T10:51:58.030Z,20.35
2022-12-12T10:54:28.852Z,8.10
2022-12-12T10:57:14.104Z,4.55
2022-12-12T10:59:53.054Z,6.35
2022-12-12T11:02:30.790Z,7.70
2022-12-12T11:05:05.882Z,5.80
2022-12-12T11:07:39.758Z,4.60
2022-12-12T11:10:33.910Z,6.03
2022-12-12T11:13:21.806Z,3.95
2022-12-12T11:15:56.932Z,5.65
2022-12-12T11:18:25.654Z,7.88
2022-12-12T11:21:03.422Z,5.93
2022-12-12T11:23:33.722Z,4.60
2022-12-12T11:26:22.653Z,7.35
2022-12-12T11:29:02.601Z,8.90
2022-12-12T11:31:34.503Z,10.20
2022-12-12T11:34:06.709Z,3.50
2022-12-12T11:36:40.705Z,5.40
2022-12-12T11:39:22.408Z,3.75
2022-12-12T11:42:30.647Z,3.15
2022-12-12T11:45:09.609Z,11.15
2022-12-12T11:47:46.631Z,5.15
2022-12-12T11:50:25.591Z,7.75
2022-12-12T11:52:59.026Z,9.13
2022-12-12T11:55:57.947Z,6.60
2022-12-12T11:58:34.273Z,5.65
2022-12-12T12:01:06.640Z,4.18
2022-12-12T12:03:56.843Z,6.65
2022-12-12T12:09:35.292Z,5.35
2022-12-12T12:12:07.942Z,4.68
2022-12-12T12:14:38.200Z,11.13
2022-12-12T12:17:22.424Z,4.38
2022-12-12T12:20:30.022Z,7.72
2022-12-12T12:23:15.332Z,8.65
2022-12-12T12:26:04.716Z,6.93
2022-12-12T12:28:52.227Z,12.20
2022-12-12T12:31:42.230Z,9.90
2022-12-12T12:34:35.861Z,10.20
2022-12-12T12:37:29.372Z,7.80
2022-12-12T12:40:10.346Z,8.13
2022-12-12T12:43:05.552Z,6.72
2022-12-12T12:46:27.217Z,11.77
2022-12-12T12:49:10.546Z,13.98
2022-12-12T12:52:10.634Z,12.00
2022-12-12T12:54:49.240Z,7.38
2022-12-12T12:57:28.618Z,6.63
2022-12-12T13:00:06.380Z,6.05
2022-12-12T13:02:56.660Z,9.55
2022-12-12T13:05:35.180Z,15.90
2022-12-12T13:08:22.422Z,7.35
2022-12-12T13:10:54.364Z,3.35
2022-12-12T13:13:36.072Z,7.03
2022-12-12T13:16:13.311Z,6.30
2022-12-12T13:18:46.194Z,5.65
2022-12-12T13:21:25.322Z,10.10
2022-12-12T13:24:10.832Z,5.55
2022-12-12T13:27:01.977Z,4.65
2022-12-12T13:29:54.057Z,6.85
2022-12-12T13:33:00.634Z,5.57
2022-12-12T13:35:38.643Z,6.20
2022-12-12T13:38:31.668Z,7.15
2022-12-12T13:41:06.728Z,5.72
2022-12-12T13:43:38.430Z,8.55
2022-12-12T13:46:21.979Z,8.07
2022-12-12T13:48:58.862Z,8.98
2022-12-12T13:51:32.347Z,8.23
2022-12-12T13:54:12.236Z,6.45
2022-12-12T13:56:53.528Z,10.38
2022-12-12T13:59:22.180Z,9.60
2022-12-12T14:02:02.104Z,6.43
2022-12-12T14:07:17.924Z,9.30
2022-12-12T14:09:49.880Z,7.32
2022-12-12T14:12:31.085Z,5.57
2022-12-12T14:15:08.764Z,9.13
2022-12-12T14:17:42.708Z,8.38
2022-12-12T14:20:27.250Z,9.45
2022-12-12T14:22:55.590Z,8.60
2022-12-12T14:25:34.433Z,7.97
2022-12-12T14:28:29.981Z,9.85
2022-12-12T14:31:17.412Z,11.32
2022-12-12T14:34:05.195Z,13.75
2022-12-12T14:36:33.717Z,13.35
2022-12-12T14:39:15.198Z,13.90
2022-12-12T14:41:47.671Z,14.65
2022-12-12T14:47:08.372Z,13.80
2022-12-12T14:49:36.962Z,16.33
2022-12-12T14:52:06.008Z,14.82
2022-12-12T14:54:36.312Z,16.52
2022-12-12T14:57:07.848Z,15.93
2022-12-12T14:59:41.271Z,14.27
2022-12-12T15:02:29.435Z,15.85
2022-12-12T15:05:05.246Z,16.00
2022-12-12T15:07:38.974Z,15.32
2022-12-12T15:10:29.442Z,15.10
2022-12-12T15:12:58.196Z,20.17
2022-12-12T15:15:35.725Z,51.92
2022-12-12T15:18:04.703Z,24.15
2022-12-12T15:20:33.231Z,19.52
2022-12-12T15:23:08.709Z,28.30
2022-12-12T15:25:55.004Z,21.25
2022-12-12T15:28:51.437Z,27.00
2022-12-12T15:31:20.888Z,30.42
2022-12-12T15:33:50.654Z,18.65
2022-12-12T15:36:28.498Z,18.23
2022-12-12T15:39:23.902Z,17.35
2022-12-12T15:41:52.420Z,14.32
2022-12-12T15:44:22.555Z,20.55
2022-12-12T15:46:53.253Z,10.80
2022-12-12T15:49:44.371Z,15.47
2022-12-12T15:52:26.410Z,13.07
2022-12-12T15:54:57.813Z,21.38
2022-12-12T15:57:30.882Z,17.40
2022-12-12T16:00:08.928Z,13.52
2022-12-12T16:02:41.229Z,23.90
2022-12-12T16:05:37.523Z,36.70
2022-12-12T16:08:32.467Z,21.20
2022-12-12T16:11:32.191Z,17.95
2022-12-12T16:14:02.347Z,18.25
2022-12-12T16:16:47.928Z,9.20
2022-12-12T16:19:39.220Z,11.82
2022-12-12T16:22:24.815Z,12.95
2022-12-12T16:24:57.742Z,9.18
2022-12-12T16:27:45.159Z,13.10
2022-12-12T16:30:17.094Z,13.48
2022-12-12T16:32:46.834Z,19.73
2022-12-12T16:35:18.329Z,13.00
2022-12-12T16:37:56.728Z,16.48
2022-12-12T16:40:25.542Z,15.63
2022-12-12T16:43:07.704Z,23.13
2022-12-12T16:45:38.316Z,20.40
2022-12-12T16:48:40.700Z,15.85
2022-12-12T16:51:40.483Z,17.20
2022-12-12T16:54:17.661Z,14.35
2022-12-12T16:56:52.850Z,13.30
2022-12-12T16:59:24.888Z,16.10
2022-12-12T17:01:53.262Z,16.38
2022-12-12T17:04:23.866Z,16.13
2022-12-12T17:06:52.804Z,16.25
2022-12-12T17:09:26.823Z,20.25
2022-12-12T17:11:59.675Z,14.60
2022-12-12T17:14:28.259Z,21.83
2022-12-12T17:16:58.605Z,14.30
2022-12-12T17:19:27.403Z,19.27
2022-12-12T17:21:58.855Z,16.25
2022-12-12T17:24:28.016Z,19.67
2022-12-12T17:26:57.157Z,14.05
2022-12-12T17:29:26.232Z,18.05
2022-12-12T17:32:03.591Z,14.40
2022-12-12T17:34:41.375Z,25.25
2022-12-12T17:37:09.791Z,30.30
2022-12-12T17:39:38.575Z,34.17
2022-12-12T17:42:06.806Z,22.48
2022-12-12T17:44:36.856Z,18.20
2022-12-12T17:47:05.145Z,20.30
2022-12-12T17:49:33.969Z,13.40
2022-12-12T17:52:03.432Z,19.77
2022-12-12T17:54:32.608Z,16.50
2022-12-12T17:57:02.857Z,16.30
2022-12-12T17:59:31.567Z,16.83
2022-12-12T18:02:01.300Z,15.32
2022-12-12T18:04:36.035Z,15.95
2022-12-12T18:07:19.902Z,15.55
2022-12-12T18:09:48.552Z,12.80
2022-12-12T18:12:17.432Z,13.68
2022-12-12T18:14:46.344Z,20.58
2022-12-12T18:17:49.374Z,21.02
2022-12-12T18:20:20.166Z,12.35
2022-12-12T18:22:50.226Z,6.80
2022-12-12T18:26:33.977Z,11.70
2022-12-12T18:29:23.662Z,24.13
2022-12-12T18:31:52.269Z,23.58
2022-12-12T18:34:21.525Z,26.17
2022-12-12T18:36:54.163Z,11.65
2022-12-12T18:42:31.856Z,13.52
2022-12-12T18:45:00.605Z,13.98
2022-12-12T18:47:31.033Z,12.93
2022-12-12T18:50:26.039Z,12.23
2022-12-12T18:52:58.516Z,14.70
2022-12-12T19:02:43.470Z,10.35
2022-12-12T19:08:10.596Z,12.90
2022-12-12T19:10:42.323Z,13.02
2022-12-12T19:16:23.083Z,11.07
2022-12-12T19:18:51.946Z,5.70
2022-12-12T19:21:24.065Z,7.25
2022-12-12T19:23:54.884Z,8.10
2022-12-12T19:26:28.154Z,11.75
2022-12-12T19:29:10.913Z,15.90
2022-12-12T19:31:52.649Z,6.40
2022-12-12T19:34:45.161Z,7.25
2022-12-12T19:37:14.596Z,14.02
2022-12-12T19:39:54.080Z,13.48
2022-12-12T19:42:25.725Z,9.27
2022-12-12T19:45:09.166Z,7.95
2022-12-12T19:51:16.585Z,9.07
2022-12-12T19:53:49.674Z,10.35
2022-12-12T19:56:21.190Z,9.65
2022-12-12T20:01:45.228Z,7.93
2022-12-12T20:04:18.382Z,9.10
2022-12-12T20:06:50.694Z,7.25
2022-12-12T20:09:48.696Z,11.63
2022-12-12T20:12:29.225Z,10.82
2022-12-12T20:14:58.888Z,10.68
2022-12-12T20:17:37.139Z,12.15
2022-12-12T20:20:08.616Z,16.15
2022-12-12T20:22:43.615Z,20.17
2022-12-12T20:25:13.379Z,32.65
2022-12-12T20:27:42.875Z,15.43
2022-12-12T20:30:13.833Z,37.33
2022-12-12T20:32:44.361Z,39.42
2022-12-12T20:35:16.138Z,16.30
2022-12-12T20:37:50.002Z,14.88
2022-12-12T20:41:23.523Z,12.05
2022-12-12T20:44:36.135Z,13.02
2022-12-12T20:50:17.500Z,15.25
2022-12-12T20:52:47.876Z,15.07
2022-12-12T20:55:20.040Z,14.65
2022-12-12T20:57:50.601Z,15.70
2022-12-12T21:00:21.804Z,14.57
2022-12-12T21:02:53.545Z,13.95
2022-12-12T21:05:23.756Z,13.68
2022-12-12T21:07:57.784Z,11.57
2022-12-12T21:10:27.936Z,13.50
2022-12-12T21:13:01.741Z,14.50
2022-12-12T21:15:30.599Z,12.77
2022-12-12T21:18:09.906Z,15.07
2022-12-12T21:20:39.011Z,14.13
2022-12-12T21:23:08.041Z,16.00
2022-12-12T21:25:37.133Z,16.52
2022-12-12T21:28:06.524Z,17.58
2022-12-12T21:30:34.925Z,16.02
2022-12-12T21:33:26.599Z,14.68
2022-12-12T21:35:55.376Z,11.53
2022-12-12T21:38:24.131Z,13.43
2022-12-12T21:40:53.646Z,13.98
2022-12-12T21:43:24.312Z,16.27
2022-12-12T21:45:53.325Z,14.77
2022-12-12T21:48:24.060Z,16.27
2022-12-12T21:50:52.616Z,12.88
2022-12-12T21:53:34.767Z,15.05
2022-12-12T21:56:16.095Z,15.63
2022-12-12T21:58:46.895Z,9.07
2022-12-12T22:01:18.149Z,14.23
2022-12-12T22:03:48.639Z,15.05
2022-12-12T22:06:25.913Z,12.98
2022-12-12T22:08:56.062Z,16.38
2022-12-12T22:11:40.108Z,12.77
2022-12-12T22:14:11.372Z,15.05
2022-12-12T22:16:39.911Z,15.35
2022-12-12T22:19:11.844Z,11.95
2022-12-12T22:21:40.634Z,12.32
2022-12-12T22:24:10.994Z,9.60
2022-12-12T22:26:45.706Z,12.07
2022-12-12T22:29:20.519Z,12.90
2022-12-12T22:31:52.759Z,9.73
2022-12-12T22:34:23.834Z,10.50
2022-12-12T22:36:53.498Z,10.60
2022-12-12T22:39:26.358Z,13.73
2022-12-12T22:41:57.392Z,14.88
2022-12-12T22:44:26.667Z,14.03
2022-12-12T22:46:56.711Z,12.13
2022-12-12T22:49:26.954Z,11.82
2022-12-12T22:51:57.372Z,15.65
2022-12-12T22:54:27.117Z,11.27
2022-12-12T22:56:55.761Z,10.13
2022-12-12T22:59:26.079Z,5.75
2022-12-12T23:01:55.471Z,10.02
2022-12-12T23:04:24.198Z,12.32
2022-12-12T23:06:52.463Z,8.30
2022-12-12T23:09:22.620Z,11.05
2022-12-12T23:11:51.128Z,9.57
2022-12-12T23:14:24.120Z,10.98
2022-12-12T23:16:54.629Z,7.95
2022-12-12T23:19:26.014Z,8.18
2022-12-12T23:21:54.487Z,9.13
2022-12-12T23:24:23.559Z,7.55
2022-12-12T23:26:52.429Z,11.45
2022-12-12T23:29:21.636Z,8.38
2022-12-12T23:31:50.273Z,9.40
2022-12-12T23:34:24.308Z,9.77
2022-12-12T23:36:54.258Z,4.43
2022-12-12T23:39:26.475Z,12.85
2022-12-12T23:41:54.738Z,9.15
2022-12-12T23:44:24.135Z,7.32
2022-12-12T23:46:52.887Z,9.05
2022-12-12T23:49:24.291Z,6.20
2022-12-12T23:51:55.866Z,6.97
2022-12-12T23:56:56.391Z,6.38
2022-12-12T23:59:26.647Z,8.13
